JBU32 EHAM-KBOS
Flight info
| Callsign | JBU32 |
|---|---|
| Flight time | N/A |
| Altitude | 34000 |
| Route | IDRID L980 MANGO DCT ENHAQ DCT GAJIT DCT BAPHU DCT LESLU/M079F340 DCT RODEL/M079F350 NATG NICSO/N0449F360 N258B TUSKY DCT EURRO OOSHN5 |
| Aircraft | A21N/M-SDE2E3FGHIRWXY/LB1 |
Departure
| Time | N/A |
|---|---|
| Airport | Amsterdam Airport Schiphol (EHAM) |
Arrival
| Time | 2026-05-06 16:23 |
|---|---|
| Airport | Boston Logan International Airport (KBOS) |
| Time | Latitude | Longitude | Altitude | Speed | Heading |
|---|---|---|---|---|---|
| 2026-05-06 15:48 | 43.40239 | -67.57732 | 34001 ft | 402 kts | 250° |
| 2026-05-06 15:48 | 43.39219 | -67.61312 | 34001 ft | 402 kts | 250° |
| 2026-05-06 15:49 | 43.37520 | -67.67259 | 34002 ft | 402 kts | 250° |
| 2026-05-06 15:49 | 43.35140 | -67.75567 | 33997 ft | 403 kts | 250° |
| 2026-05-06 15:50 | 43.33083 | -67.82725 | 34010 ft | 403 kts | 250° |
| 2026-05-06 15:50 | 43.31378 | -67.88643 | 33993 ft | 400 kts | 250° |
| 2026-05-06 15:51 | 43.29331 | -67.95730 | 33994 ft | 399 kts | 250° |
| 2026-05-06 15:51 | 43.27283 | -68.02800 | 33995 ft | 399 kts | 250° |
| 2026-05-06 15:52 | 43.25246 | -68.09815 | 33987 ft | 399 kts | 250° |
| 2026-05-06 15:52 | 43.23190 | -68.16874 | 33985 ft | 398 kts | 250° |
| 2026-05-06 15:53 | 43.20796 | -68.25068 | 33973 ft | 398 kts | 250° |
| 2026-05-06 15:53 | 43.19068 | -68.30966 | 33974 ft | 398 kts | 249° |
| 2026-05-06 15:54 | 43.17004 | -68.37995 | 33978 ft | 396 kts | 250° |
| 2026-05-06 15:54 | 43.14964 | -68.44920 | 33971 ft | 394 kts | 249° |
| 2026-05-06 15:55 | 43.12910 | -68.51878 | 33959 ft | 394 kts | 250° |
| 2026-05-06 15:55 | 43.10849 | -68.58835 | 33968 ft | 395 kts | 250° |
| 2026-05-06 15:56 | 43.08783 | -68.65796 | 33960 ft | 395 kts | 250° |
| 2026-05-06 15:56 | 43.06728 | -68.72696 | 33967 ft | 395 kts | 250° |
| 2026-05-06 15:57 | 43.04649 | -68.79663 | 33745 ft | 398 kts | 249° |
| 2026-05-06 15:57 | 43.03601 | -68.83170 | 32879 ft | 401 kts | 249° |
| 2026-05-06 15:57 | 43.02535 | -68.86728 | 31836 ft | 407 kts | 249° |
| 2026-05-06 15:58 | 43.01459 | -68.90317 | 30878 ft | 410 kts | 249° |
| 2026-05-06 15:58 | 43.00369 | -68.93944 | 29805 ft | 415 kts | 249° |
| 2026-05-06 15:58 | 42.99287 | -68.97542 | 28983 ft | 413 kts | 249° |
| 2026-05-06 15:58 | 42.98202 | -69.01141 | 28292 ft | 408 kts | 248° |
| 2026-05-06 15:59 | 42.97128 | -69.04701 | 27644 ft | 402 kts | 248° |
| 2026-05-06 15:59 | 42.96071 | -69.08198 | 27142 ft | 394 kts | 248° |
| 2026-05-06 15:59 | 42.95035 | -69.11624 | 26707 ft | 386 kts | 248° |
| 2026-05-06 15:59 | 42.94017 | -69.14985 | 26231 ft | 383 kts | 248° |
| 2026-05-06 16:00 | 42.92997 | -69.18348 | 25761 ft | 383 kts | 248° |
| 2026-05-06 16:00 | 42.91981 | -69.21695 | 25308 ft | 380 kts | 248° |
| 2026-05-06 16:00 | 42.90975 | -69.25004 | 24834 ft | 374 kts | 247° |
| 2026-05-06 16:00 | 42.89995 | -69.28223 | 24371 ft | 372 kts | 247° |
| 2026-05-06 16:01 | 42.89006 | -69.31471 | 23918 ft | 372 kts | 247° |
| 2026-05-06 16:01 | 42.88013 | -69.34725 | 23440 ft | 371 kts | 247° |
| 2026-05-06 16:01 | 42.87024 | -69.37960 | 22932 ft | 369 kts | 246° |
| 2026-05-06 16:01 | 42.86041 | -69.41174 | 22448 ft | 366 kts | 246° |
| 2026-05-06 16:02 | 42.85067 | -69.44355 | 21984 ft | 363 kts | 246° |
| 2026-05-06 16:02 | 42.84097 | -69.47520 | 21516 ft | 360 kts | 246° |
| 2026-05-06 16:02 | 42.83134 | -69.50656 | 21067 ft | 358 kts | 246° |
| 2026-05-06 16:02 | 42.82177 | -69.53770 | 20626 ft | 355 kts | 246° |
| 2026-05-06 16:03 | 42.81239 | -69.56816 | 20166 ft | 352 kts | 245° |
| 2026-05-06 16:03 | 42.80299 | -69.59869 | 19706 ft | 348 kts | 245° |
| 2026-05-06 16:03 | 42.79363 | -69.62903 | 19256 ft | 346 kts | 245° |
| 2026-05-06 16:03 | 42.78435 | -69.65906 | 18811 ft | 344 kts | 245° |
| 2026-05-06 16:04 | 42.77510 | -69.68900 | 18334 ft | 342 kts | 245° |
| 2026-05-06 16:04 | 42.76589 | -69.71874 | 17870 ft | 341 kts | 245° |
| 2026-05-06 16:04 | 42.75682 | -69.74798 | 17425 ft | 338 kts | 245° |
| 2026-05-06 16:04 | 42.74773 | -69.77728 | 16987 ft | 335 kts | 245° |
| 2026-05-06 16:05 | 42.73869 | -69.80639 | 16543 ft | 332 kts | 245° |
| 2026-05-06 16:05 | 42.72975 | -69.83515 | 16099 ft | 329 kts | 244° |
| 2026-05-06 16:05 | 42.72087 | -69.86368 | 15691 ft | 326 kts | 244° |
| 2026-05-06 16:05 | 42.71209 | -69.89185 | 15267 ft | 322 kts | 244° |
| 2026-05-06 16:06 | 42.70339 | -69.91975 | 14851 ft | 319 kts | 244° |
| 2026-05-06 16:06 | 42.69479 | -69.94732 | 14422 ft | 316 kts | 244° |
| 2026-05-06 16:06 | 42.68624 | -69.97465 | 14012 ft | 313 kts | 244° |
| 2026-05-06 16:06 | 42.67787 | -70.00140 | 13606 ft | 310 kts | 244° |
| 2026-05-06 16:07 | 42.66962 | -70.02781 | 13426 ft | 294 kts | 244° |
| 2026-05-06 16:07 | 42.66188 | -70.05260 | 13338 ft | 276 kts | 244° |
| 2026-05-06 16:07 | 42.65458 | -70.07591 | 13203 ft | 261 kts | 243° |
| 2026-05-06 16:07 | 42.64739 | -70.09772 | 13110 ft | 246 kts | 242° |
| 2026-05-06 16:08 | 42.64039 | -70.11831 | 13017 ft | 234 kts | 241° |
| 2026-05-06 16:08 | 42.63357 | -70.13816 | 12934 ft | 233 kts | 241° |
| 2026-05-06 16:08 | 42.62666 | -70.15819 | 12797 ft | 235 kts | 241° |
| 2026-05-06 16:08 | 42.61985 | -70.17794 | 12522 ft | 234 kts | 241° |
| 2026-05-06 16:09 | 42.61299 | -70.19788 | 12272 ft | 232 kts | 241° |
| 2026-05-06 16:09 | 42.60628 | -70.21769 | 12025 ft | 231 kts | 243° |
| 2026-05-06 16:09 | 42.60169 | -70.23859 | 11776 ft | 234 kts | 253° |
| 2026-05-06 16:09 | 42.59993 | -70.26063 | 11526 ft | 235 kts | 258° |
| 2026-05-06 16:10 | 42.59892 | -70.28283 | 11265 ft | 235 kts | 258° |
| 2026-05-06 16:10 | 42.59801 | -70.30488 | 11025 ft | 234 kts | 258° |
| 2026-05-06 16:10 | 42.59707 | -70.32681 | 10777 ft | 232 kts | 258° |
| 2026-05-06 16:10 | 42.59613 | -70.34833 | 10510 ft | 231 kts | 257° |
| 2026-05-06 16:11 | 42.59515 | -70.37004 | 10271 ft | 230 kts | 257° |
| 2026-05-06 16:11 | 42.59416 | -70.39161 | 10039 ft | 229 kts | 257° |
| 2026-05-06 16:11 | 42.59316 | -70.41308 | 9795 ft | 227 kts | 257° |
| 2026-05-06 16:11 | 42.59217 | -70.43441 | 9545 ft | 226 kts | 257° |
| 2026-05-06 16:12 | 42.59117 | -70.45552 | 9392 ft | 226 kts | 257° |
| 2026-05-06 16:12 | 42.59015 | -70.47676 | 9152 ft | 226 kts | 257° |
| 2026-05-06 16:12 | 42.58914 | -70.49798 | 8915 ft | 225 kts | 257° |
| 2026-05-06 16:12 | 42.58813 | -70.51918 | 8671 ft | 225 kts | 257° |
| 2026-05-06 16:13 | 42.58713 | -70.54006 | 8449 ft | 225 kts | 257° |
| 2026-05-06 16:13 | 42.58579 | -70.56100 | 8218 ft | 219 kts | 253° |
| 2026-05-06 16:13 | 42.58320 | -70.58132 | 7509 ft | 222 kts | 252° |
| 2026-05-06 16:13 | 42.58024 | -70.60230 | 6620 ft | 230 kts | 252° |
| 2026-05-06 16:14 | 42.57710 | -70.62373 | 5820 ft | 233 kts | 252° |
| 2026-05-06 16:14 | 42.57390 | -70.64518 | 5105 ft | 231 kts | 251° |
| 2026-05-06 16:14 | 42.57068 | -70.66646 | 4507 ft | 230 kts | 251° |
| 2026-05-06 16:14 | 42.56744 | -70.68756 | 4073 ft | 227 kts | 252° |
| 2026-05-06 16:15 | 42.56428 | -70.70809 | 3965 ft | 224 kts | 251° |
| 2026-05-06 16:15 | 42.56119 | -70.72824 | 3997 ft | 211 kts | 251° |
| 2026-05-06 16:15 | 42.55841 | -70.74736 | 3985 ft | 207 kts | 253° |
| 2026-05-06 16:15 | 42.55654 | -70.76683 | 3978 ft | 209 kts | 255° |
| 2026-05-06 16:16 | 42.55495 | -70.78642 | 3983 ft | 209 kts | 256° |
| 2026-05-06 16:16 | 42.55343 | -70.80592 | 3725 ft | 208 kts | 256° |
| 2026-05-06 16:16 | 42.55186 | -70.82489 | 3301 ft | 203 kts | 256° |
| 2026-05-06 16:16 | 42.55015 | -70.84374 | 3028 ft | 200 kts | 256° |
| 2026-05-06 16:17 | 42.54837 | -70.86253 | 2981 ft | 201 kts | 256° |
| 2026-05-06 16:17 | 42.54659 | -70.88138 | 2992 ft | 201 kts | 256° |
| 2026-05-06 16:17 | 42.54479 | -70.90010 | 2989 ft | 205 kts | 256° |
| 2026-05-06 16:17 | 42.54247 | -70.91917 | 2980 ft | 202 kts | 244° |
| 2026-05-06 16:18 | 42.53354 | -70.93286 | 2973 ft | 198 kts | 207° |
| 2026-05-06 16:18 | 42.52013 | -70.93658 | 2956 ft | 192 kts | 194° |
| 2026-05-06 16:18 | 42.50727 | -70.93875 | 2772 ft | 177 kts | 195° |
| 2026-05-06 16:18 | 42.49584 | -70.94181 | 2572 ft | 166 kts | 199° |
| 2026-05-06 16:19 | 42.48462 | -70.94707 | 2358 ft | 169 kts | 202° |
| 2026-05-06 16:19 | 42.47415 | -70.95229 | 2117 ft | 153 kts | 201° |
| 2026-05-06 16:19 | 42.46475 | -70.95676 | 1930 ft | 138 kts | 200° |
| 2026-05-06 16:19 | 42.45599 | -70.96099 | 1766 ft | 132 kts | 200° |
| 2026-05-06 16:20 | 42.44730 | -70.96522 | 1584 ft | 133 kts | 200° |
| 2026-05-06 16:20 | 42.43851 | -70.96948 | 1397 ft | 135 kts | 201° |
| 2026-05-06 16:20 | 42.42966 | -70.97376 | 1221 ft | 134 kts | 201° |
| 2026-05-06 16:20 | 42.42090 | -70.97802 | 1032 ft | 134 kts | 200° |
| 2026-05-06 16:21 | 42.41216 | -70.98227 | 846 ft | 133 kts | 199° |
| 2026-05-06 16:21 | 42.40345 | -70.98648 | 680 ft | 133 kts | 199° |
| 2026-05-06 16:21 | 42.39487 | -70.99083 | 510 ft | 130 kts | 199° |
| 2026-05-06 16:21 | 42.38648 | -70.99495 | 360 ft | 129 kts | 198° |
| 2026-05-06 16:22 | 42.37820 | -70.99882 | 142 ft | 122 kts | 198° |
| 2026-05-06 16:22 | 42.37052 | -71.00248 | 34 ft | 111 kts | 200° |
| 2026-05-06 16:22 | 42.36451 | -71.00534 | 29 ft | 74 kts | 200° |
| 2026-05-06 16:22 | 42.36047 | -71.00738 | 30 ft | 53 kts | 206° |
| 2026-05-06 16:23 | 42.35848 | -71.01033 | 28 ft | 28 kts | 244° |
| 2026-05-06 16:23 | 42.35842 | -71.01213 | 28 ft | 15 kts | 278° |
| 2026-05-06 16:23 | 42.35848 | -71.01267 | 28 ft | 0 kts | 278° |
| 2026-05-06 16:25 | 42.35849 | -71.01272 | 28 ft | 3 kts | 278° |
| 2026-05-06 16:25 | 42.35854 | -71.01334 | 28 ft | 10 kts | 271° |
| 2026-05-06 16:25 | 42.35811 | -71.01431 | 28 ft | 15 kts | 234° |
| 2026-05-06 16:26 | 42.35814 | -71.01581 | 28 ft | 19 kts | 282° |
| 2026-05-06 16:26 | 42.35842 | -71.01760 | 28 ft | 20 kts | 281° |
| 2026-05-06 16:26 | 42.35892 | -71.01933 | 28 ft | 20 kts | 299° |
| 2026-05-06 16:26 | 42.35971 | -71.02034 | 28 ft | 7 kts | 5° |
| 2026-05-06 16:27 | 42.35991 | -71.02000 | 28 ft | 6 kts | 93° |
| 2026-05-06 16:27 | 42.35980 | -71.01934 | 28 ft | 9 kts | 90° |
| 2026-05-06 16:27 | 42.36013 | -71.01871 | 28 ft | 2 kts | 29° |